Time;durP1;ratioP1;P1;durP2;ratioP2;P2;SDS_P1;SDS_P2;PMS_P1;PMS_P2;Temp;Humidity;BMP_temperature;BMP_pressure;BME280_temperature;BME280_humidity;BME280_pressure;Samples;Min_cycle;Max_cycle;Signal;HPM_P1;HPM_P2
2022/05/27 00:00:24;;;;;;;21.83;11.27;;;27.50;99.90;;;;;;4122972;28;20050;-65
2022/05/27 00:02:30;;;;;;;18.08;10.02;;;27.50;99.90;;;;;;4159487;28;20474;-66
2022/05/27 00:04:37;;;;;;;22.92;9.85;;;27.60;99.90;;;;;;4162957;28;20046;-66
2022/05/27 00:06:45;;;;;;;18.65;9.27;;;27.60;99.90;;;;;;4163696;28;20059;-66
2022/05/27 00:08:51;;;;;;;16.60;9.20;;;27.60;99.90;;;;;;4163071;28;20140;-66
2022/05/27 00:10:57;;;;;;;16.25;8.95;;;27.70;99.90;;;;;;4163755;28;20132;-66
2022/05/27 00:13:04;;;;;;;16.52;9.13;;;27.80;99.90;;;;;;4162825;28;20060;-66
2022/05/27 00:15:10;;;;;;;18.58;9.25;;;27.80;99.90;;;;;;4162837;28;20056;-66
2022/05/27 00:17:16;;;;;;;22.15;9.18;;;27.90;99.90;;;;;;4162803;28;20099;-66
2022/05/27 00:19:22;;;;;;;19.67;9.43;;;27.90;99.90;;;;;;4163819;28;20472;-66
2022/05/27 00:21:29;;;;;;;16.67;9.40;;;28.00;99.90;;;;;;4162490;28;20488;-65
2022/05/27 00:23:34;;;;;;;17.10;9.35;;;28.00;99.90;;;;;;4162704;28;20128;-66
2022/05/27 00:25:41;;;;;;;16.77;8.55;;;28.00;99.90;;;;;;4187510;28;20060;-66
2022/05/27 00:27:47;;;;;;;16.30;8.80;;;28.10;99.90;;;;;;4157206;28;20685;-66
2022/05/27 00:29:52;;;;;;;19.48;8.63;;;28.10;99.90;;;;;;4161825;28;20408;-66
2022/05/27 00:32:07;;;;;;;17.83;8.63;;;28.10;99.90;;;;;;4162330;28;20423;-66
2022/05/27 00:34:14;;;;;;;16.13;8.57;;;28.20;99.90;;;;;;4163714;28;20046;-66
2022/05/27 00:36:19;;;;;;;17.67;8.07;;;28.20;99.90;;;;;;4163244;28;20475;-66
2022/05/27 00:38:27;;;;;;;16.20;8.35;;;28.30;99.90;;;;;;4163815;28;20083;-66
2022/05/27 00:40:40;;;;;;;16.15;7.18;;;28.30;99.90;;;;;;4176746;28;20538;-65
2022/05/27 00:42:46;;;;;;;17.55;7.82;;;28.30;99.90;;;;;;4163297;28;20045;-65
2022/05/27 00:44:53;;;;;;;22.77;8.70;;;28.40;99.90;;;;;;4162510;28;20455;-65
2022/05/27 00:47:12;;;;;;;15.60;8.55;;;28.50;99.90;;;;;;4169118;28;20073;-66
2022/05/27 00:49:25;;;;;;;19.02;8.38;;;28.50;99.90;;;;;;4161617;28;20052;-65
2022/05/27 00:51:33;;;;;;;17.80;8.40;;;28.50;99.90;;;;;;4127806;28;20820;-66
2022/05/27 00:53:41;;;;;;;21.00;8.20;;;28.60;99.90;;;;;;4146304;28;20060;-65
2022/05/27 00:55:58;;;;;;;16.85;8.48;;;28.60;99.90;;;;;;4174407;28;21006;-65
2022/05/27 00:58:08;;;;;;;19.92;8.40;;;28.70;99.90;;;;;;4142917;28;20050;-65
2022/05/27 01:00:17;;;;;;;14.38;7.85;;;28.70;99.90;;;;;;4152633;28;20451;-66
2022/05/27 01:02:21;;;;;;;16.33;7.35;;;28.80;99.90;;;;;;4142480;28;20410;-66
2022/05/27 01:04:28;;;;;;;19.90;7.95;;;28.70;99.90;;;;;;4159776;28;20050;-66
2022/05/27 01:06:33;;;;;;;19.63;7.72;;;28.70;99.90;;;;;;4161570;28;20119;-66
2022/05/27 01:08:39;;;;;;;17.55;7.55;;;28.70;99.90;;;;;;4145815;28;20149;-66
2022/05/27 01:10:56;;;;;;;14.85;7.65;;;28.80;99.90;;;;;;4163128;28;20048;-66
2022/05/27 01:13:19;;;;;;;15.95;7.50;;;28.80;99.90;;;;;;4156456;28;20045;-66
2022/05/27 01:15:47;;;;;;;15.77;7.40;;;28.90;99.90;;;;;;4161441;28;20099;-66
2022/05/27 01:18:13;;;;;;;16.50;7.35;;;28.90;99.90;;;;;;4154942;28;20061;-66
2022/05/27 01:20:34;;;;;;;16.60;7.68;;;28.90;99.90;;;;;;4158305;28;20043;-66
2022/05/27 01:22:54;;;;;;;19.23;7.82;;;29.00;99.90;;;;;;4168944;28;20080;-66
2022/05/27 01:25:25;;;;;;;17.67;7.70;;;29.10;99.90;;;;;;4137857;28;20042;-66
2022/05/27 01:27:37;;;;;;;16.83;6.60;;;29.20;99.90;;;;;;4163393;28;20045;-64
2022/05/27 01:29:54;;;;;;;22.20;7.60;;;29.20;99.90;;;;;;4161739;28;20084;-65
2022/05/27 01:32:05;;;;;;;16.00;7.60;;;29.20;99.90;;;;;;4162740;28;20481;-65
2022/05/27 01:34:20;;;;;;;25.92;9.27;;;29.30;99.90;;;;;;4139167;28;20504;-66
2022/05/27 01:36:56;;;;;;;18.70;7.32;;;29.30;99.90;;;;;;4162476;28;20051;-65
2022/05/27 01:39:16;;;;;;;20.60;7.63;;;29.40;99.90;;;;;;4162243;28;20385;-66
2022/05/27 01:41:43;;;;;;;21.02;7.30;;;29.50;99.90;;;;;;4158067;28;20053;-66
2022/05/27 01:43:53;;;;;;;15.15;7.35;;;29.50;99.90;;;;;;4161420;28;20064;-66
2022/05/27 01:46:03;;;;;;;15.68;7.07;;;29.60;99.90;;;;;;4160160;28;20050;-66
2022/05/27 01:48:17;;;;;;;16.05;7.18;;;29.60;99.90;;;;;;4162719;28;20077;-66
2022/05/27 01:50:28;;;;;;;17.67;7.28;;;29.70;99.90;;;;;;4171191;28;20661;-66
2022/05/27 01:52:56;;;;;;;18.77;7.30;;;29.80;99.90;;;;;;4168461;28;20037;-66
2022/05/27 01:55:19;;;;;;;16.05;6.65;;;29.80;99.90;;;;;;4162477;28;20037;-66
2022/05/27 01:57:31;;;;;;;15.90;6.47;;;29.80;99.90;;;;;;4172702;28;20069;-66
2022/05/27 02:00:02;;;;;;;15.95;7.10;;;29.80;99.90;;;;;;4170942;28;20111;-65
2022/05/27 02:02:19;;;;;;;15.55;7.22;;;29.80;99.90;;;;;;4162189;28;20049;-65
2022/05/27 02:04:30;;;;;;;13.95;6.88;;;29.80;99.90;;;;;;4156870;28;20042;-66
2022/05/27 02:06:44;;;;;;;16.85;7.63;;;29.70;99.90;;;;;;4161487;28;20078;-65
2022/05/27 02:09:21;;;;;;;16.92;7.13;;;29.70;99.90;;;;;;4162169;28;20045;-66
2022/05/27 02:11:26;;;;;;;14.38;6.85;;;29.80;99.90;;;;;;4162057;28;20042;-65
2022/05/27 02:14:01;;;;;;;13.02;7.05;;;29.90;99.90;;;;;;4162771;28;20060;-66
2022/05/27 02:16:09;;;;;;;12.07;7.30;;;30.00;99.90;;;;;;4156071;28;20107;-65
2022/05/27 02:18:27;;;;;;;17.45;7.78;;;30.00;99.90;;;;;;4162398;28;20046;-65
2022/05/27 02:20:35;;;;;;;18.83;6.65;;;30.00;99.90;;;;;;4161782;28;20516;-65
2022/05/27 02:22:47;;;;;;;18.70;6.82;;;30.00;99.90;;;;;;4160309;28;20045;-66
2022/05/27 02:25:18;;;;;;;17.70;6.63;;;30.00;99.90;;;;;;4170147;28;20053;-65
2022/05/27 02:27:50;;;;;;;20.63;7.30;;;30.00;99.90;;;;;;4144283;28;20153;-66
2022/05/27 02:29:58;;;;;;;16.30;7.05;;;30.10;99.90;;;;;;4161991;28;20049;-66
2022/05/27 02:32:09;;;;;;;17.63;7.13;;;30.30;99.90;;;;;;4162040;28;20045;-66
2022/05/27 02:37:26;;;;;;;17.02;7.32;;;30.30;99.90;;;;;;4175568;28;20072;-65
2022/05/27 02:39:32;;;;;;;18.75;7.15;;;30.40;99.90;;;;;;4161722;28;20448;-66
2022/05/27 02:41:54;;;;;;;21.48;6.85;;;30.50;99.90;;;;;;4161687;28;20128;-65
2022/05/27 02:44:09;;;;;;;16.65;6.50;;;30.60;99.90;;;;;;4161860;28;20523;-65
2022/05/27 02:46:28;;;;;;;15.13;6.43;;;30.70;99.90;;;;;;4161374;28;20065;-65
2022/05/27 02:48:53;;;;;;;18.52;6.90;;;30.80;99.90;;;;;;4162576;28;20057;-65
2022/05/27 02:51:09;;;;;;;20.10;7.72;;;30.80;99.90;;;;;;4162255;28;20061;-65
2022/05/27 02:53:32;;;;;;;18.27;6.78;;;30.80;99.90;;;;;;4146403;28;20068;-65
2022/05/27 02:55:45;;;;;;;18.02;6.53;;;30.90;99.90;;;;;;4162854;28;20064;-64
2022/05/27 02:57:51;;;;;;;16.10;6.53;;;31.00;99.90;;;;;;4161350;28;20099;-65
2022/05/27 02:59:55;;;;;;;17.70;6.75;;;31.20;99.90;;;;;;4161637;28;20136;-65
2022/05/27 03:02:14;;;;;;;15.73;6.20;;;31.20;99.90;;;;;;4161220;28;20053;-65
2022/05/27 03:04:21;;;;;;;18.80;7.25;;;31.30;99.90;;;;;;4161587;28;20468;-65
2022/05/27 03:06:39;;;;;;;16.08;6.53;;;31.30;99.90;;;;;;4161057;28;20125;-65
2022/05/27 03:08:46;;;;;;;15.30;6.40;;;31.30;99.90;;;;;;4153984;28;20081;-65
2022/05/27 03:11:05;;;;;;;18.88;5.93;;;31.30;99.90;;;;;;4162467;28;20121;-65
2022/05/27 03:13:41;;;;;;;15.38;6.10;;;31.40;99.90;;;;;;4160585;28;20042;-65
2022/05/27 03:16:05;;;;;;;16.30;5.45;;;31.50;99.90;;;;;;4154247;28;20049;-65
2022/05/27 03:18:18;;;;;;;16.30;5.45;;;31.50;99.40;;;;;;4157290;28;20140;-65
2022/05/27 03:20:41;;;;;;;12.02;5.38;;;31.40;99.80;;;;;;4161400;28;20041;-66
2022/05/27 03:22:49;;;;;;;19.00;6.20;;;31.40;99.90;;;;;;4162281;28;20432;-66
2022/05/27 03:25:12;;;;;;;21.90;6.22;;;31.50;99.90;;;;;;4153931;28;20033;-65
2022/05/27 03:27:38;;;;;;;15.80;5.80;;;31.60;99.90;;;;;;4164224;28;20424;-66
2022/05/27 03:29:56;;;;;;;21.33;6.10;;;31.70;99.90;;;;;;4151393;28;20050;-65
2022/05/27 03:32:08;;;;;;;18.50;5.88;;;31.80;99.90;;;;;;4165801;28;20076;-65
2022/05/27 03:34:21;;;;;;;16.33;5.15;;;31.70;99.90;;;;;;4135954;28;20077;-65
2022/05/27 03:36:51;;;;;;;13.18;5.20;;;31.80;99.20;;;;;;4165191;28;20049;-65
2022/05/27 03:39:10;;;;;;;16.13;5.47;;;31.70;98.80;;;;;;4160051;28;20073;-65
2022/05/27 03:41:31;;;;;;;21.05;5.63;;;31.80;98.60;;;;;;4156870;28;20144;-65
2022/05/27 03:43:48;;;;;;;14.60;5.50;;;31.80;98.20;;;;;;4165555;28;20043;-65
2022/05/27 03:45:57;;;;;;;16.50;6.13;;;31.80;97.90;;;;;;4176776;28;20081;-65
2022/05/27 03:48:04;;;;;;;21.65;6.13;;;31.80;97.60;;;;;;4168705;28;20095;-65
2022/05/27 03:50:11;;;;;;;17.63;5.35;;;31.80;97.10;;;;;;4162109;28;20038;-65
2022/05/27 03:52:19;;;;;;;20.33;5.22;;;31.90;97.20;;;;;;4144815;28;20042;-65
2022/05/27 03:54:23;;;;;;;18.45;5.95;;;32.00;97.00;;;;;;4173666;28;20054;-65
2022/05/27 03:56:28;;;;;;;16.50;5.22;;;32.00;96.80;;;;;;4151798;28;20050;-65
2022/05/27 03:58:35;;;;;;;19.13;5.43;;;32.00;96.40;;;;;;4162548;28;20141;-65
2022/05/27 04:00:41;;;;;;;14.85;6.30;;;32.00;97.20;;;;;;4164223;28;20045;-66
2022/05/27 04:02:46;;;;;;;16.38;5.68;;;32.00;96.70;;;;;;4163171;28;20052;-66
2022/05/27 04:04:53;;;;;;;17.80;5.32;;;32.00;96.60;;;;;;4155599;28;20050;-66
2022/05/27 04:06:58;;;;;;;19.15;5.72;;;32.00;96.20;;;;;;4169509;28;20828;-66
2022/05/27 04:09:04;;;;;;;16.27;5.43;;;32.00;96.80;;;;;;4150325;28;20054;-66
2022/05/27 04:11:10;;;;;;;20.80;5.80;;;32.00;96.90;;;;;;4167882;28;20177;-66
2022/05/27 04:13:17;;;;;;;15.57;5.57;;;32.00;95.90;;;;;;4141295;28;20037;-66
2022/05/27 04:15:22;;;;;;;27.25;6.90;;;32.10;96.50;;;;;;4157598;28;20045;-66
2022/05/27 04:17:32;;;;;;;20.90;6.20;;;32.10;96.80;;;;;;4144263;28;20108;-66
2022/05/27 04:19:37;;;;;;;19.77;5.45;;;32.10;96.70;;;;;;4161205;28;20080;-66
2022/05/27 04:21:42;;;;;;;17.05;6.25;;;32.10;96.10;;;;;;4150881;28;20050;-67
2022/05/27 04:23:46;;;;;;;20.58;5.82;;;32.10;95.90;;;;;;4157892;28;20041;-66
2022/05/27 04:25:53;;;;;;;17.23;5.95;;;32.10;95.50;;;;;;4164254;28;20045;-66
2022/05/27 04:27:59;;;;;;;17.48;5.78;;;32.10;95.80;;;;;;4163461;28;20046;-66
2022/05/27 04:30:06;;;;;;;16.33;5.60;;;32.20;96.00;;;;;;4162807;28;20480;-67
2022/05/27 04:32:13;;;;;;;17.35;6.05;;;32.20;95.60;;;;;;4163223;28;20132;-67
2022/05/27 04:34:18;;;;;;;17.90;6.47;;;32.30;95.90;;;;;;4163289;28;20568;-66
2022/05/27 04:36:25;;;;;;;16.58;6.20;;;32.30;95.30;;;;;;4161875;28;20037;-66
2022/05/27 04:38:34;;;;;;;16.33;5.68;;;32.30;95.40;;;;;;4171437;28;20053;-67
2022/05/27 04:40:40;;;;;;;19.25;6.22;;;32.30;95.00;;;;;;4179727;28;20053;-67
2022/05/27 04:42:44;;;;;;;16.40;5.72;;;32.30;95.00;;;;;;4164561;28;20052;-67
2022/05/27 04:44:51;;;;;;;19.75;6.00;;;32.40;95.00;;;;;;4164844;28;20049;-66
2022/05/27 04:46:56;;;;;;;14.15;5.65;;;32.50;94.90;;;;;;4164412;28;20029;-67
2022/05/27 04:49:01;;;;;;;17.95;5.72;;;32.60;95.00;;;;;;4171307;28;20041;-67
2022/05/27 04:51:07;;;;;;;19.10;6.05;;;32.60;95.10;;;;;;4164439;28;20576;-66
2022/05/27 04:53:12;;;;;;;16.88;5.93;;;32.80;95.20;;;;;;4164559;28;20430;-67
2022/05/27 04:55:21;;;;;;;18.98;6.30;;;32.80;95.60;;;;;;4162978;28;20111;-66
2022/05/27 04:57:34;;;;;;;18.27;5.53;;;32.70;94.80;;;;;;4164535;28;20412;-67
2022/05/27 04:59:39;;;;;;;18.25;5.70;;;32.60;95.40;;;;;;4156565;28;20057;-66
2022/05/27 05:01:46;;;;;;;19.00;5.93;;;32.80;95.60;;;;;;4159744;28;20499;-67
2022/05/27 05:03:53;;;;;;;12.63;5.25;;;32.70;94.80;;;;;;4162970;28;20043;-66
2022/05/27 05:05:58;;;;;;;18.88;5.93;;;32.70;95.00;;;;;;4164351;28;20042;-67
2022/05/27 05:08:18;;;;;;;16.65;5.47;;;32.60;94.40;;;;;;4164137;28;20038;-66
2022/05/27 05:10:24;;;;;;;16.27;5.20;;;32.70;95.30;;;;;;4163705;28;20114;-67
2022/05/27 05:12:29;;;;;;;15.77;5.38;;;32.80;94.50;;;;;;4146802;28;20073;-65
2022/05/27 05:14:36;;;;;;;12.65;4.97;;;33.00;94.80;;;;;;4164200;28;20045;-66
2022/05/27 05:16:41;;;;;;;13.90;5.78;;;33.00;94.40;;;;;;4163254;28;20045;-65
2022/05/27 05:18:47;;;;;;;14.55;5.13;;;33.10;94.50;;;;;;4164003;28;20057;-65
2022/05/27 05:20:53;;;;;;;12.93;5.03;;;33.20;94.20;;;;;;4156780;28;20439;-66
2022/05/27 05:23:01;;;;;;;19.10;5.63;;;33.40;94.60;;;;;;4156333;28;20045;-67
2022/05/27 05:25:07;;;;;;;17.42;4.97;;;33.40;93.80;;;;;;4162854;28;20061;-66
2022/05/27 05:27:14;;;;;;;15.23;5.07;;;33.50;94.00;;;;;;4162785;28;20520;-65
2022/05/27 05:29:19;;;;;;;14.10;4.88;;;33.70;94.60;;;;;;4164382;28;20068;-67
2022/05/27 05:31:25;;;;;;;16.55;5.60;;;33.80;94.00;;;;;;4174278;28;20054;-66
2022/05/27 05:33:31;;;;;;;11.50;5.10;;;33.60;93.70;;;;;;4163784;28;20136;-67
2022/05/27 05:35:38;;;;;;;19.92;5.38;;;33.60;93.60;;;;;;4163502;28;20111;-66
2022/05/27 05:37:43;;;;;;;12.68;5.35;;;33.60;93.50;;;;;;4163169;28;20041;-66
2022/05/27 05:39:50;;;;;;;15.35;5.60;;;33.70;93.90;;;;;;4163122;28;20057;-66
2022/05/27 05:42:02;;;;;;;14.10;5.03;;;33.70;93.70;;;;;;4163690;28;20057;-66
2022/05/27 05:44:09;;;;;;;15.00;5.05;;;33.70;93.80;;;;;;4163834;28;20049;-66
2022/05/27 05:46:16;;;;;;;14.80;5.43;;;33.70;93.40;;;;;;4162013;28;20060;-67
2022/05/27 05:48:21;;;;;;;14.48;5.80;;;33.70;93.60;;;;;;4162734;28;20046;-66
2022/05/27 05:50:27;;;;;;;18.98;5.65;;;33.70;93.90;;;;;;4163554;28;20446;-65
2022/05/27 05:52:33;;;;;;;16.45;5.68;;;33.80;93.20;;;;;;4163456;28;20051;-65
2022/05/27 05:54:40;;;;;;;20.30;5.40;;;33.80;93.10;;;;;;4162154;28;20061;-65
2022/05/27 05:56:48;;;;;;;14.27;5.45;;;33.80;93.60;;;;;;4162076;28;20045;-66
2022/05/27 05:58:53;;;;;;;17.55;6.00;;;33.70;93.30;;;;;;4164061;28;20380;-66
2022/05/27 06:00:59;;;;;;;17.02;5.40;;;33.80;93.30;;;;;;4163255;28;20045;-67
2022/05/27 06:03:04;;;;;;;17.00;5.43;;;33.90;93.60;;;;;;4163590;28;20045;-66
2022/05/27 06:05:11;;;;;;;18.17;5.63;;;33.70;93.00;;;;;;4162905;28;20128;-66
2022/05/27 06:07:18;;;;;;;16.88;5.25;;;33.70;93.30;;;;;;4128270;28;20494;-66
2022/05/27 06:09:25;;;;;;;17.10;5.32;;;33.90;93.20;;;;;;4163327;28;20103;-66
2022/05/27 06:11:32;;;;;;;15.15;5.15;;;34.10;92.40;;;;;;4162736;28;20053;-66
2022/05/27 06:13:41;;;;;;;18.30;5.47;;;34.20;93.20;;;;;;4163081;28;20041;-66
2022/05/27 06:15:46;;;;;;;15.15;4.65;;;34.40;92.90;;;;;;4161954;28;20061;-66
2022/05/27 06:17:52;;;;;;;16.98;5.15;;;34.50;92.80;;;;;;4162374;28;20132;-66
2022/05/27 06:20:00;;;;;;;16.75;4.82;;;34.60;92.60;;;;;;4165870;28;20046;-66
2022/05/27 06:22:05;;;;;;;17.00;5.38;;;34.60;92.00;;;;;;4163058;28;20136;-66
2022/05/27 06:24:12;;;;;;;14.82;5.22;;;34.70;92.30;;;;;;4161800;28;20075;-67
2022/05/27 06:26:18;;;;;;;20.23;5.78;;;34.70;92.50;;;;;;4162817;28;20037;-66
2022/05/27 06:35:19;;;;;;;20.35;5.47;;;34.80;91.60;;;;;;4145735;28;20057;-66
2022/05/27 06:37:24;;;;;;;18.65;6.25;;;34.80;91.70;;;;;;4161361;28;20589;-66
2022/05/27 06:39:31;;;;;;;14.80;5.13;;;34.80;90.80;;;;;;4161641;28;20095;-66
2022/05/27 06:41:39;;;;;;;15.43;4.95;;;34.70;91.40;;;;;;4162885;28;20407;-66
2022/05/27 06:43:47;;;;;;;17.15;5.75;;;34.70;90.90;;;;;;4161589;28;20053;-66
2022/05/27 06:45:54;;;;;;;12.68;5.10;;;34.80;91.80;;;;;;4162609;28;20041;-66
2022/05/27 06:48:00;;;;;;;14.52;5.20;;;34.60;91.50;;;;;;4162029;28;20063;-66
2022/05/27 06:50:07;;;;;;;18.40;4.93;;;34.70;91.10;;;;;;4162823;28;20053;-67
2022/05/27 06:52:13;;;;;;;19.40;5.80;;;34.70;91.00;;;;;;4162337;28;20041;-66
2022/05/27 06:54:19;;;;;;;18.50;5.03;;;34.70;91.30;;;;;;4162986;28;20077;-67
2022/05/27 06:56:26;;;;;;;13.02;4.43;;;34.70;91.10;;;;;;4161200;28;20535;-67
2022/05/27 06:58:32;;;;;;;18.48;5.05;;;34.50;90.30;;;;;;4146970;28;20116;-67
2022/05/27 07:00:37;;;;;;;13.77;4.82;;;34.50;90.50;;;;;;4160884;28;20447;-67
2022/05/27 07:02:46;;;;;;;15.63;4.95;;;34.70;90.90;;;;;;4149233;28;20050;-67
2022/05/27 07:04:54;;;;;;;18.67;5.22;;;35.00;90.80;;;;;;4162473;28;20610;-67
2022/05/27 07:07:00;;;;;;;13.88;4.32;;;35.00;90.60;;;;;;4162281;28;20140;-67
2022/05/27 07:09:07;;;;;;;17.75;5.28;;;35.20;90.40;;;;;;4172640;28;20037;-66
2022/05/27 07:11:16;;;;;;;16.77;4.93;;;35.20;89.50;;;;;;4177669;28;20033;-66
2022/05/27 07:13:20;;;;;;;12.43;4.63;;;35.20;89.20;;;;;;4162281;28;20057;-66
2022/05/27 07:15:26;;;;;;;13.90;4.57;;;35.10;88.00;;;;;;4162758;28;20088;-66
2022/05/27 07:17:32;;;;;;;18.67;4.78;;;35.20;90.40;;;;;;4162431;28;20057;-66
2022/05/27 07:19:37;;;;;;;15.02;4.93;;;34.90;88.40;;;;;;4162382;28;20055;-66
2022/05/27 07:21:44;;;;;;;15.75;4.82;;;34.70;88.30;;;;;;4170278;28;20054;-66
2022/05/27 07:23:54;;;;;;;14.80;5.30;;;34.60;89.00;;;;;;4111938;28;20047;-67
2022/05/27 07:25:58;;;;;;;20.92;5.88;;;34.70;88.60;;;;;;4161206;28;20130;-66
2022/05/27 07:28:06;;;;;;;12.45;4.70;;;34.80;89.10;;;;;;4160991;28;20562;-66
2022/05/27 07:30:16;;;;;;;19.48;4.72;;;34.90;89.10;;;;;;4174380;28;20037;-67
2022/05/27 07:32:21;;;;;;;12.23;4.47;;;35.00;88.80;;;;;;4153475;28;20460;-66
2022/05/27 07:34:28;;;;;;;18.00;5.00;;;35.20;87.30;;;;;;4162279;28;20046;-66
2022/05/27 07:36:36;;;;;;;16.95;5.20;;;35.30;88.40;;;;;;4143592;28;20401;-66
2022/05/27 07:38:41;;;;;;;16.13;5.35;;;35.00;88.80;;;;;;4167619;28;20140;-67
2022/05/27 07:40:47;;;;;;;12.52;4.95;;;35.10;89.90;;;;;;4157189;28;20137;-66
2022/05/27 07:42:55;;;;;;;16.13;5.43;;;35.20;88.60;;;;;;4162117;28;20050;-66
2022/05/27 07:45:00;;;;;;;23.27;5.13;;;35.20;89.10;;;;;;4159255;28;20034;-67
2022/05/27 07:47:07;;;;;;;17.60;5.70;;;35.20;88.20;;;;;;4160883;28;20050;-67
2022/05/27 07:49:11;;;;;;;17.52;4.93;;;35.30;88.40;;;;;;4176830;28;20095;-67
2022/05/27 07:51:36;;;;;;;20.10;5.20;;;35.30;87.70;;;;;;4160883;28;20128;-67
2022/05/27 07:53:41;;;;;;;22.92;5.57;;;35.40;88.30;;;;;;4172337;28;20061;-67
2022/05/27 07:55:49;;;;;;;44.88;6.05;;;35.40;87.10;;;;;;4162041;28;20054;-67
2022/05/27 07:57:53;;;;;;;21.52;4.88;;;35.50;87.00;;;;;;4162050;28;20049;-67
2022/05/27 08:00:05;;;;;;;11.80;4.30;;;35.40;86.20;;;;;;4178379;28;20115;-67
2022/05/27 08:02:15;;;;;;;15.00;4.95;;;35.40;86.90;;;;;;4165024;28;20055;-67
2022/05/27 08:04:20;;;;;;;14.63;4.38;;;35.40;87.60;;;;;;4165268;28;20060;-66
2022/05/27 08:06:25;;;;;;;13.52;4.65;;;35.50;87.90;;;;;;4160698;28;20083;-66
2022/05/27 08:08:31;;;;;;;15.73;4.20;;;35.60;84.70;;;;;;4140655;28;20520;-66
2022/05/27 08:10:37;;;;;;;15.77;4.20;;;35.60;84.50;;;;;;4163506;28;20095;-67
2022/05/27 08:12:44;;;;;;;14.02;4.18;;;35.60;85.10;;;;;;4171365;28;20120;-67
2022/05/27 08:14:51;;;;;;;11.55;4.38;;;35.60;85.30;;;;;;4143743;28;20049;-66
2022/05/27 08:16:56;;;;;;;12.57;4.28;;;35.60;84.80;;;;;;4160118;28;20726;-66
2022/05/27 08:19:02;;;;;;;15.80;4.50;;;35.60;85.30;;;;;;4165214;28;20073;-66
2022/05/27 08:21:09;;;;;;;15.95;4.57;;;35.50;86.10;;;;;;4139990;28;20603;-66
2022/05/27 08:23:14;;;;;;;10.60;4.45;;;35.50;86.00;;;;;;4164548;28;20087;-65
2022/05/27 08:25:18;;;;;;;14.70;4.65;;;35.50;85.60;;;;;;4164826;28;20464;-65
2022/05/27 08:27:23;;;;;;;16.95;4.95;;;35.70;86.90;;;;;;4163978;28;20045;-65
2022/05/27 08:29:28;;;;;;;16.95;5.22;;;35.70;86.10;;;;;;4164938;28;20037;-65
2022/05/27 08:31:33;;;;;;;13.13;4.47;;;35.70;85.80;;;;;;4164908;28;20053;-65
2022/05/27 08:38:15;;;;;;;13.35;4.30;;;35.50;86.00;;;;;;4160613;28;20037;-65
2022/05/27 08:40:32;;;;;;;11.38;4.30;;;35.60;86.70;;;;;;4129643;28;20058;-65
2022/05/27 08:42:49;;;;;;;14.05;4.63;;;35.60;85.40;;;;;;4164298;28;20058;-65
2022/05/27 08:44:58;;;;;;;13.93;4.70;;;35.60;85.10;;;;;;4164726;28;20753;-65
2022/05/27 08:47:22;;;;;;;14.02;4.53;;;35.50;86.00;;;;;;4163289;28;20037;-66
2022/05/27 08:49:37;;;;;;;12.63;4.70;;;35.60;85.60;;;;;;4161771;28;20136;-66
2022/05/27 08:51:45;;;;;;;15.35;5.25;;;35.50;85.50;;;;;;4164503;28;20140;-66
2022/05/27 08:53:55;;;;;;;14.00;5.60;;;35.60;84.40;;;;;;4172569;28;20097;-67
2022/05/27 09:00:59;;;;;;;18.05;4.38;;;35.60;83.80;;;;;;4164660;28;20056;-66
2022/05/27 09:03:05;;;;;;;15.23;4.80;;;35.40;85.10;;;;;;4164033;28;20049;-65
2022/05/27 09:05:19;;;;;;;16.30;6.20;;;35.30;84.40;;;;;;4163260;28;20449;-66
2022/05/27 09:07:42;;;;;;;17.02;4.45;;;35.30;84.80;;;;;;4164216;28;20049;-66
2022/05/27 09:09:47;;;;;;;15.75;4.90;;;35.30;85.30;;;;;;4164396;28;20049;-66
2022/05/27 09:12:01;;;;;;;13.23;4.97;;;35.40;85.70;;;;;;4156375;28;20045;-67
2022/05/27 09:14:14;;;;;;;13.60;3.88;;;35.50;85.40;;;;;;4163974;28;20457;-67
2022/05/27 09:16:38;;;;;;;16.58;4.53;;;35.30;83.60;;;;;;4164003;28;20544;-66
2022/05/27 09:19:25;;;;;;;15.50;4.32;;;35.30;83.80;;;;;;4163404;28;20041;-66
2022/05/27 09:21:37;;;;;;;12.70;3.97;;;35.30;83.10;;;;;;4164136;28;20046;-67
2022/05/27 09:24:06;;;;;;;15.18;4.75;;;35.30;84.40;;;;;;4169557;28;20147;-67
2022/05/27 09:26:30;;;;;;;17.00;5.40;;;35.30;83.80;;;;;;4163857;28;20508;-67
2022/05/27 09:28:43;;;;;;;12.73;4.38;;;35.30;83.00;;;;;;4159543;28;20729;-66
2022/05/27 09:30:50;;;;;;;15.65;4.60;;;35.30;82.40;;;;;;4161492;28;20047;-67
2022/05/27 09:32:59;;;;;;;14.77;4.78;;;35.30;83.30;;;;;;4161316;28;20042;-67
2022/05/27 09:35:08;;;;;;;18.02;4.88;;;35.30;83.50;;;;;;4162720;28;20515;-67
2022/05/27 09:37:37;;;;;;;12.02;4.20;;;35.20;83.60;;;;;;4163608;28;20120;-67
2022/05/27 09:39:44;;;;;;;11.65;4.45;;;35.10;83.70;;;;;;4147783;28;20056;-66
2022/05/27 09:42:06;;;;;;;16.42;4.70;;;35.10;83.90;;;;;;4163748;28;20049;-67
2022/05/27 09:44:35;;;;;;;14.48;4.75;;;35.10;84.40;;;;;;4156155;28;20068;-66
2022/05/27 09:46:43;;;;;;;11.98;4.18;;;35.10;84.10;;;;;;4163261;28;20042;-66
2022/05/27 09:48:50;;;;;;;15.60;4.65;;;35.10;85.10;;;;;;4160439;28;20041;-66
2022/05/27 09:51:00;;;;;;;18.02;5.38;;;35.00;83.10;;;;;;4157613;28;20133;-66
2022/05/27 09:53:08;;;;;;;15.98;4.55;;;35.00;82.50;;;;;;4142622;28;20445;-68
2022/05/27 09:55:28;;;;;;;15.15;4.53;;;35.00;82.70;;;;;;4158990;28;20443;-66
2022/05/27 09:57:33;;;;;;;14.98;5.10;;;34.90;84.40;;;;;;4161215;28;20049;-66
2022/05/27 09:59:44;;;;;;;13.77;4.70;;;34.80;84.80;;;;;;4144159;28;20058;-67
2022/05/27 10:01:49;;;;;;;17.10;6.03;;;34.80;88.90;;;;;;4125137;28;20046;-67
2022/05/27 10:04:07;;;;;;;20.15;6.00;;;34.70;90.00;;;;;;4144581;28;20486;-67
2022/05/27 10:06:19;;;;;;;19.52;6.13;;;34.60;90.40;;;;;;4128392;28;20117;-67
2022/05/27 10:08:32;;;;;;;18.05;6.75;;;34.60;91.40;;;;;;4159217;28;20112;-67
2022/05/27 10:10:39;;;;;;;20.13;7.85;;;34.50;91.50;;;;;;4139609;28;20064;-67
2022/05/27 10:12:46;;;;;;;19.70;9.18;;;34.40;91.90;;;;;;4158131;28;20136;-67
2022/05/27 10:14:51;;;;;;;25.05;8.82;;;34.40;91.50;;;;;;4143542;28;20129;-65
2022/05/27 10:17:01;;;;;;;15.95;7.40;;;34.30;91.50;;;;;;4143352;28;20061;-67
2022/05/27 10:19:14;;;;;;;17.17;6.93;;;34.30;91.50;;;;;;4159189;28;20045;-67
2022/05/27 10:21:21;;;;;;;16.35;6.53;;;34.20;91.30;;;;;;4120763;28;20090;-67
2022/05/27 10:23:45;;;;;;;16.52;6.13;;;34.10;91.60;;;;;;4152474;28;20423;-68
2022/05/27 10:25:49;;;;;;;17.92;8.13;;;34.10;91.40;;;;;;4143747;28;20112;-67
2022/05/27 10:27:58;;;;;;;17.90;6.22;;;34.00;91.30;;;;;;4111505;28;20533;-68
2022/05/27 10:30:07;;;;;;;16.95;6.05;;;33.90;90.90;;;;;;4143428;28;20038;-68
2022/05/27 10:32:26;;;;;;;12.55;6.70;;;33.80;91.30;;;;;;4158915;28;20045;-68
2022/05/27 10:34:45;;;;;;;14.20;6.43;;;33.80;91.30;;;;;;4138222;28;20133;-67
2022/05/27 10:36:58;;;;;;;14.73;5.43;;;33.80;91.60;;;;;;4159224;28;20069;-67
2022/05/27 10:39:23;;;;;;;18.48;6.18;;;33.80;91.80;;;;;;4161152;28;20540;-67
2022/05/27 10:41:41;;;;;;;16.33;6.25;;;33.70;91.70;;;;;;4160046;28;20057;-67
2022/05/27 10:44:02;;;;;;;13.50;6.25;;;33.70;91.90;;;;;;4161922;28;20041;-67
2022/05/27 10:46:15;;;;;;;17.48;10.20;;;33.60;91.80;;;;;;4162080;28;20034;-67
2022/05/27 10:48:39;;;;;;;18.00;8.25;;;33.60;91.80;;;;;;4161771;28;20060;-67
2022/05/27 10:51:09;;;;;;;15.30;6.30;;;33.60;91.80;;;;;;4154060;28;20049;-68
2022/05/27 10:53:48;;;;;;;16.63;6.85;;;33.60;92.00;;;;;;4159049;28;20112;-67
2022/05/27 10:56:08;;;;;;;15.93;6.82;;;33.50;91.90;;;;;;4156425;28;20519;-66
2022/05/27 11:03:36;;;;;;;15.10;5.28;;;33.50;92.20;;;;;;4157772;28;20140;-67
2022/05/27 11:05:48;;;;;;;13.40;5.68;;;33.40;92.50;;;;;;4158755;28;20045;-66
2022/05/27 11:08:20;;;;;;;14.18;6.03;;;33.40;92.50;;;;;;4140842;28;20074;-68
2022/05/27 11:10:40;;;;;;;17.13;5.68;;;33.30;92.70;;;;;;4157696;28;20124;-67
2022/05/27 11:15:47;;;;;;;18.77;7.40;;;33.20;93.20;;;;;;4158425;28;20096;-66
2022/05/27 11:18:06;;;;;;;21.15;8.15;;;33.10;93.30;;;;;;4158190;28;20076;-67
2022/05/27 11:20:24;;;;;;;22.25;8.65;;;33.10;93.30;;;;;;4158467;28;20068;-67
2022/05/27 11:22:44;;;;;;;22.83;8.82;;;33.10;93.90;;;;;;4156540;28;20055;-67
2022/05/27 11:25:08;;;;;;;23.30;9.18;;;33.00;94.60;;;;;;4157227;28;20049;-68
2022/05/27 11:27:38;;;;;;;23.73;9.98;;;32.90;94.90;;;;;;4159444;28;20442;-67
2022/05/27 11:29:59;;;;;;;19.20;10.48;;;32.80;95.40;;;;;;4160118;28;20041;-67
2022/05/27 11:32:25;;;;;;;20.30;12.45;;;32.70;95.50;;;;;;4150294;28;20042;-67
2022/05/27 11:34:39;;;;;;;28.65;13.50;;;32.70;95.70;;;;;;4159224;28;20053;-67
2022/05/27 11:36:55;;;;;;;25.45;13.50;;;32.60;96.10;;;;;;4159346;28;20512;-67
2022/05/27 11:39:17;;;;;;;27.00;12.20;;;32.60;96.20;;;;;;4160876;28;20437;-68
2022/05/27 11:41:42;;;;;;;24.88;13.77;;;32.50;96.40;;;;;;4162206;28;20527;-66